Time;durP1;ratioP1;P1;durP2;ratioP2;P2;SDS_P1;SDS_P2;PMS_P1;PMS_P2;Temp;Humidity;BMP_temperature;BMP_pressure;BME280_temperature;BME280_humidity;BME280_pressure;Samples;Min_cycle;Max_cycle;Signal;HPM_P1;HPM_P2
2022/10/29 00:00:54;;;;;;;16.97;13.75;;;;;;;12.19;86.80;100511.41;1850884;75;21108;-82
2022/10/29 00:03:21;;;;;;;17.20;13.10;;;;;;;12.11;87.12;100510.88;1843798;77;21645;-81
2022/10/29 00:06:06;;;;;;;17.30;13.58;;;;;;;12.12;87.20;100504.53;1848874;76;21037;-81
2022/10/29 00:08:35;;;;;;;16.93;13.88;;;;;;;12.13;87.09;100501.37;1839686;75;21506;-81
2022/10/29 00:11:11;;;;;;;16.95;13.75;;;;;;;12.05;87.35;100502.16;1854770;75;21006;-81
2022/10/29 00:13:38;;;;;;;19.10;13.25;;;;;;;11.98;87.67;100499.31;1847876;77;21115;-82
2022/10/29 00:16:11;;;;;;;17.92;14.55;;;;;;;12.00;87.52;100493.84;1832626;77;21054;-79
2022/10/29 00:18:38;;;;;;;17.65;12.65;;;;;;;11.92;87.69;100489.30;1786262;77;21515;-80
2022/10/29 00:21:07;;;;;;;16.20;13.50;;;;;;;11.83;87.96;100488.88;1814319;77;21043;-80
2022/10/29 00:23:34;;;;;;;19.07;14.45;;;;;;;11.86;88.05;100488.58;1849734;77;21000;-79
2022/10/29 00:26:01;;;;;;;18.32;13.55;;;;;;;11.82;87.92;100484.57;1861459;77;21134;-80
2022/10/29 00:28:27;;;;;;;16.77;13.50;;;;;;;11.74;88.23;100483.17;1861676;75;21463;-81
2022/10/29 00:30:54;;;;;;;17.57;13.30;;;;;;;11.74;88.17;100480.03;1861147;77;21152;-81
2022/10/29 00:33:21;;;;;;;17.77;14.07;;;;;;;11.72;88.08;100470.52;1855378;75;20981;-80
2022/10/29 00:36:03;;;;;;;19.65;13.72;;;;;;;11.67;88.34;100472.84;1850741;77;21029;-79
2022/10/29 00:38:30;;;;;;;17.10;14.33;;;;;;;11.62;88.54;100470.63;1839452;77;21123;-81
2022/10/29 00:40:57;;;;;;;17.65;14.65;;;;;;;11.62;88.49;100465.30;1847475;77;20997;-80
2022/10/29 00:43:26;;;;;;;23.65;14.87;;;;;;;11.54;88.59;100460.77;1858001;77;20981;-79
2022/10/29 00:46:00;;;;;;;18.73;15.35;;;;;;;11.46;88.77;100459.39;1841870;75;20995;-79
2022/10/29 00:48:28;;;;;;;18.52;14.38;;;;;;;11.49;88.98;100471.53;1819327;75;21081;-80
2022/10/29 00:50:55;;;;;;;15.72;14.07;;;;;;;11.44;88.99;100464.03;1800368;77;21387;-80
2022/10/29 00:53:25;;;;;;;17.45;14.30;;;;;;;11.38;89.35;100460.17;1788026;78;21044;-81
2022/10/29 00:55:52;;;;;;;18.05;15.20;;;;;;;11.41;89.24;100455.88;1782447;78;20981;-83
2022/10/29 00:58:18;;;;;;;19.15;15.32;;;;;;;11.37;89.24;100460.31;1789991;78;21120;-83
2022/10/29 01:00:45;;;;;;;16.60;14.25;;;;;;;11.31;89.44;100456.95;1773014;80;21485;-82
2022/10/29 01:03:12;;;;;;;15.68;14.07;;;;;;;11.33;89.34;100453.64;1777773;80;21137;-80
2022/10/29 01:05:39;;;;;;;19.23;14.87;;;;;;;11.31;89.29;100454.30;1807962;77;20948;-82
2022/10/29 01:08:05;;;;;;;18.17;13.62;;;;;;;11.22;89.40;100448.06;1818135;79;21488;-81
2022/10/29 01:10:46;;;;;;;17.02;13.28;;;;;;;11.21;89.40;100453.06;1818052;77;21019;-80
2022/10/29 01:13:44;;;;;;;16.75;13.95;;;;;;;11.26;89.30;100453.91;1816763;77;21077;-82
2022/10/29 01:16:40;;;;;;;19.82;14.45;;;;;;;11.20;89.18;100450.91;1815773;78;21812;-82
2022/10/29 01:19:28;;;;;;;14.75;11.95;;;;;;;11.13;89.36;100457.83;1816492;77;21077;-81
2022/10/29 01:22:12;;;;;;;19.10;13.72;;;;;;;11.16;89.30;100457.53;1769854;78;21101;-79
2022/10/29 01:25:08;;;;;;;18.07;12.80;;;;;;;11.12;89.22;100453.48;1752409;81;21513;-81
2022/10/29 01:27:52;;;;;;;18.80;13.55;;;;;;;11.05;89.40;100461.75;1804183;79;21067;-80
2022/10/29 01:31:06;;;;;;;17.07;13.08;;;;;;;11.07;89.23;100457.59;1810793;79;21266;-80
2022/10/29 01:33:38;;;;;;;18.47;14.20;;;;;;;11.08;89.17;100449.46;1747055;79;21048;-79
2022/10/29 01:36:18;;;;;;;17.32;13.05;;;;;;;10.96;89.27;100451.53;1812310;79;20972;-82
2022/10/29 01:38:59;;;;;;;17.60;13.00;;;;;;;10.94;89.36;100449.52;1779599;79;21541;-81
2022/10/29 01:41:53;;;;;;;18.67;14.23;;;;;;;11.00;89.41;100454.22;1805291;79;21032;-81
2022/10/29 01:44:36;;;;;;;18.12;14.53;;;;;;;10.92;89.36;100446.69;1785212;80;21107;-81
2022/10/29 01:47:05;;;;;;;15.23;12.53;;;;;;;10.84;89.61;100447.45;1815862;79;21241;-83
2022/10/29 01:49:38;;;;;;;18.07;13.70;;;;;;;10.89;89.58;100437.17;1812842;79;22202;-83
2022/10/29 01:52:06;;;;;;;18.92;14.60;;;;;;;10.87;89.62;100432.50;1806826;79;21036;-84
2022/10/29 01:54:37;;;;;;;16.45;12.73;;;;;;;10.78;89.79;100424.97;1807912;79;21044;-81
2022/10/29 01:57:07;;;;;;;14.58;13.08;;;;;;;10.77;89.86;100430.43;1753857;79;21229;-80
2022/10/29 01:59:33;;;;;;;16.12;13.78;;;;;;;10.80;89.70;100428.81;1783761;80;21512;-81
2022/10/29 02:02:12;;;;;;;16.80;13.68;;;;;;;10.74;89.80;100422.75;1799744;79;21008;-81
2022/10/29 02:05:07;;;;;;;18.45;14.07;;;;;;;10.67;89.95;100419.87;1800445;79;21130;-79
2022/10/29 02:07:49;;;;;;;20.43;14.00;;;;;;;10.70;89.90;100416.94;1803150;79;21087;-83
2022/10/29 02:10:54;;;;;;;15.50;13.60;;;;;;;10.67;90.02;100417.72;1810701;79;21141;-82
2022/10/29 02:13:25;;;;;;;15.72;12.37;;;;;;;10.58;90.39;100416.80;1804793;79;21548;-80
2022/10/29 02:15:52;;;;;;;16.97;13.03;;;;;;;10.56;90.49;100410.80;1803327;79;21029;-80
2022/10/29 02:18:19;;;;;;;17.15;14.30;;;;;;;10.58;90.34;100412.81;1807615;79;20973;-81
2022/10/29 02:20:46;;;;;;;17.35;14.47;;;;;;;10.51;90.59;100411.27;1807379;78;21048;-79
2022/10/29 02:23:13;;;;;;;17.10;14.20;;;;;;;10.48;90.78;100409.41;1803320;79;21109;-79
2022/10/29 02:25:42;;;;;;;19.23;14.07;;;;;;;10.50;90.71;100408.76;1771541;79;21555;-82
2022/10/29 02:28:08;;;;;;;20.95;14.90;;;;;;;10.48;90.79;100415.55;1849979;75;20959;-80
2022/10/29 02:30:35;;;;;;;18.15;13.83;;;;;;;10.39;91.03;100415.97;1850811;75;21037;-79
2022/10/29 02:33:03;;;;;;;16.20;13.48;;;;;;;10.37;91.26;100417.95;1845072;75;20977;-79
2022/10/29 02:35:30;;;;;;;20.02;14.43;;;;;;;10.40;91.08;100416.30;1847728;75;21750;-78
2022/10/29 02:37:57;;;;;;;17.92;13.95;;;;;;;10.36;91.09;100414.93;1836469;77;21046;-78
2022/10/29 02:40:23;;;;;;;19.30;14.58;;;;;;;10.30;91.33;100415.53;1849614;77;21447;-80
2022/10/29 02:42:50;;;;;;;16.52;13.50;;;;;;;10.31;91.44;100404.41;1843898;75;20951;-80
2022/10/29 02:45:18;;;;;;;19.42;16.20;;;;;;;10.33;91.30;100400.61;1845341;75;21019;-79
2022/10/29 02:47:44;;;;;;;20.02;14.87;;;;;;;10.29;91.37;100387.77;1845597;77;21509;-78
2022/10/29 02:50:11;;;;;;;18.12;14.05;;;;;;;10.24;91.59;100396.19;1846566;75;21050;-77
2022/10/29 02:52:39;;;;;;;17.32;14.73;;;;;;;10.26;91.44;100390.23;1845776;75;21010;-79
2022/10/29 02:55:06;;;;;;;21.05;15.23;;;;;;;10.24;91.43;100398.34;1846320;77;21082;-78
2022/10/29 02:57:32;;;;;;;22.73;15.25;;;;;;;10.15;91.63;100389.12;1846110;75;21540;-79
2022/10/29 02:59:59;;;;;;;15.75;13.43;;;;;;;10.12;91.86;100390.73;1851789;77;21082;-84
2022/10/29 03:02:25;;;;;;;17.23;13.38;;;;;;;10.15;91.66;100386.47;1842289;75;20995;-82
2022/10/29 03:04:52;;;;;;;23.98;14.47;;;;;;;10.12;91.78;100389.41;1829233;75;20996;-83
2022/10/29 03:07:18;;;;;;;18.55;13.75;;;;;;;10.04;92.03;100387.02;1841568;75;21034;-82
2022/10/29 03:09:45;;;;;;;18.73;14.68;;;;;;;10.07;91.96;100375.77;1847543;75;21066;-83
2022/10/29 03:12:12;;;;;;;20.02;13.43;;;;;;;10.11;91.84;100378.45;1846370;75;21892;-79
2022/10/29 03:14:38;;;;;;;17.70;13.93;;;;;;;10.09;91.87;100383.09;1846943;75;21115;-80
2022/10/29 03:17:05;;;;;;;16.17;13.70;;;;;;;10.02;91.97;100374.39;1853947;75;20979;-80
2022/10/29 03:19:32;;;;;;;19.02;14.98;;;;;;;10.08;91.74;100381.40;1847703;75;20960;-81
2022/10/29 03:21:59;;;;;;;18.00;15.13;;;;;;;10.08;91.62;100380.07;1852928;75;21573;-80
2022/10/29 03:24:25;;;;;;;19.48;14.50;;;;;;;10.00;91.81;100374.18;1853626;75;21208;-78
2022/10/29 03:26:51;;;;;;;20.37;14.68;;;;;;;9.98;92.02;100378.80;1847375;75;20974;-82
2022/10/29 03:29:18;;;;;;;18.73;14.70;;;;;;;10.01;91.86;100359.44;1847402;75;20964;-83
2022/10/29 03:31:44;;;;;;;20.00;15.90;;;;;;;9.99;91.86;100352.12;1845333;77;20995;-80
2022/10/29 03:34:11;;;;;;;21.93;15.32;;;;;;;9.93;91.93;100362.01;1852939;76;21531;-81
2022/10/29 03:36:37;;;;;;;18.82;14.70;;;;;;;9.94;92.00;100360.18;1853585;75;22381;-81
2022/10/29 03:39:04;;;;;;;17.82;14.93;;;;;;;9.95;91.87;100363.19;1854105;75;21030;-82
2022/10/29 03:41:30;;;;;;;19.75;15.70;;;;;;;9.89;92.03;100359.31;1846752;75;20974;-82
2022/10/29 03:43:58;;;;;;;22.50;14.33;;;;;;;9.79;92.38;100351.88;1847159;75;21030;-82
2022/10/29 03:46:24;;;;;;;16.82;13.90;;;;;;;9.78;92.55;100361.66;1778651;79;21139;-82
2022/10/29 03:48:50;;;;;;;16.73;14.18;;;;;;;9.80;92.34;100359.70;1847711;77;22071;-86
2022/10/29 03:51:17;;;;;;;20.82;14.23;;;;;;;9.75;92.48;100350.50;1836094;75;21025;-81
2022/10/29 03:53:44;;;;;;;19.82;15.78;;;;;;;9.69;92.71;100339.98;1848173;75;21034;-80
2022/10/29 03:56:10;;;;;;;19.00;15.03;;;;;;;9.74;92.52;100340.39;1848473;75;21093;-83
2022/10/29 03:58:36;;;;;;;19.73;15.65;;;;;;;9.78;92.30;100346.24;1844722;75;21049;-84
2022/10/29 04:01:05;;;;;;;19.92;15.80;;;;;;;9.71;92.40;100339.34;1844719;75;21215;-84
2022/10/29 04:03:33;;;;;;;21.65;15.38;;;;;;;9.67;92.39;100337.98;1845167;75;21053;-82
2022/10/29 04:06:01;;;;;;;20.53;15.17;;;;;;;9.71;92.34;100339.84;1841928;75;20975;-79
2022/10/29 04:08:29;;;;;;;23.12;16.93;;;;;;;9.68;92.37;100343.64;1845640;75;21014;-81
2022/10/29 04:10:57;;;;;;;20.35;15.13;;;;;;;9.59;92.49;100342.69;1855148;76;20935;-82
2022/10/29 04:13:25;;;;;;;20.88;15.68;;;;;;;9.60;92.54;100347.03;1857644;75;20971;-82
2022/10/29 04:15:55;;;;;;;19.10;14.75;;;;;;;9.63;92.46;100345.39;1853688;75;20891;-82
2022/10/29 04:18:23;;;;;;;21.00;15.93;;;;;;;9.59;92.65;100343.19;1852902;77;21030;-82
2022/10/29 04:20:52;;;;;;;21.55;14.73;;;;;;;9.50;92.73;100334.78;1853718;75;21601;-82
2022/10/29 04:23:19;;;;;;;21.52;13.95;;;;;;;9.52;92.75;100338.98;1850799;77;21047;-80
2022/10/29 04:25:57;;;;;;;20.52;16.00;;;;;;;9.54;92.77;100330.38;1854112;77;21125;-82
2022/10/29 04:28:24;;;;;;;21.42;15.55;;;;;;;9.50;92.79;100329.48;1828904;75;21057;-82
2022/10/29 04:30:51;;;;;;;20.45;14.73;;;;;;;9.42;92.92;100325.73;1831059;75;21017;-82
2022/10/29 04:33:18;;;;;;;17.62;14.68;;;;;;;9.43;92.94;100332.72;1813981;78;21541;-84
2022/10/29 04:35:53;;;;;;;17.12;15.18;;;;;;;9.47;92.82;100331.94;1851865;75;20982;-84
2022/10/29 04:38:19;;;;;;;;;;;;;;;9.43;92.95;100322.61;1849436;75;22034;-83
2022/10/29 04:40:46;;;;;;;19.23;14.68;;;;;;;9.37;93.37;100323.20;1854605;77;20167;-82
2022/10/29 04:43:13;;;;;;;20.20;14.68;;;;;;;9.40;93.05;100314.44;1850234;77;21014;-83
2022/10/29 04:45:40;;;;;;;20.97;16.10;;;;;;;9.42;93.01;100308.99;1847580;75;21081;-83
2022/10/29 04:48:06;;;;;;;20.65;16.20;;;;;;;9.37;93.15;100315.25;1847567;75;21443;-81
2022/10/29 04:50:36;;;;;;;19.25;15.48;;;;;;;9.34;93.04;100316.35;1848481;75;21137;-82
2022/10/29 04:53:04;;;;;;;22.00;15.43;;;;;;;9.36;92.84;100314.89;1854252;75;21007;-82
2022/10/29 04:55:31;;;;;;;18.05;14.50;;;;;;;9.33;92.87;100318.67;1852592;77;21093;-84
2022/10/29 04:57:58;;;;;;;20.25;14.83;;;;;;;9.24;93.17;100323.52;1850949;75;21403;-85
2022/10/29 05:00:24;;;;;;;20.02;15.13;;;;;;;9.28;93.29;100328.05;1835070;75;20982;-82
2022/10/29 05:02:51;;;;;;;19.23;14.47;;;;;;;9.31;93.21;100320.64;1863448;76;21215;-82
2022/10/29 05:05:19;;;;;;;21.43;13.77;;;;;;;9.30;93.24;100314.15;1846474;75;21002;-83
2022/10/29 05:07:47;;;;;;;18.57;14.58;;;;;;;9.27;93.29;100311.78;1854862;77;21558;-83
2022/10/29 05:10:14;;;;;;;21.57;15.83;;;;;;;9.34;92.98;100307.07;1848347;76;21005;-84
2022/10/29 05:12:42;;;;;;;22.42;15.68;;;;;;;9.37;92.76;100303.31;1849161;77;21057;-83
2022/10/29 05:15:10;;;;;;;20.57;15.48;;;;;;;9.31;92.76;100298.11;1845432;77;21129;-81
2022/10/29 05:17:37;;;;;;;22.85;16.57;;;;;;;9.32;92.79;100288.33;1851282;77;20994;-80
2022/10/29 05:20:05;;;;;;;22.37;17.37;;;;;;;9.39;92.48;100297.38;1835611;75;21030;-82
2022/10/29 05:22:31;;;;;;;24.15;16.70;;;;;;;9.35;92.45;100298.16;1827329;77;20990;-84
2022/10/29 05:24:58;;;;;;;22.00;15.50;;;;;;;9.28;92.76;100300.20;1818684;77;21021;-81
2022/10/29 05:27:24;;;;;;;21.33;15.75;;;;;;;9.33;92.68;100308.54;1832785;76;21196;-83
2022/10/29 05:29:51;;;;;;;23.07;15.60;;;;;;;9.37;92.48;100303.31;1842356;76;21076;-84
2022/10/29 05:32:17;;;;;;;18.65;15.98;;;;;;;9.33;92.60;100308.07;1828642;77;21543;-82
2022/10/29 05:36:55;;;;;;;21.25;15.45;;;;;;;9.42;92.66;100297.06;1851686;76;28064;-83
2022/10/29 05:39:23;;;;;;;19.60;14.83;;;;;;;9.43;92.57;100304.05;1820833;78;21074;-82
2022/10/29 05:41:49;;;;;;;19.32;15.32;;;;;;;9.42;92.60;100304.52;1816048;78;21136;-83
2022/10/29 05:44:16;;;;;;;19.90;15.23;;;;;;;9.52;92.41;100304.50;1823285;78;21125;-82
2022/10/29 05:46:43;;;;;;;18.65;16.17;;;;;;;9.58;92.08;100310.53;1787597;78;21019;-82
2022/10/29 05:49:11;;;;;;;22.25;16.50;;;;;;;9.57;92.02;100306.20;1819607;78;21049;-83
2022/10/29 05:51:37;;;;;;;19.92;15.45;;;;;;;9.59;91.88;100307.38;1793705;78;21049;-82
2022/10/29 05:54:04;;;;;;;19.05;15.53;;;;;;;9.70;91.42;100290.44;1841190;76;21095;-82
2022/10/29 05:56:31;;;;;;;21.23;16.57;;;;;;;9.73;91.08;100285.64;1806998;76;20935;-83
2022/10/29 05:58:58;;;;;;;21.75;16.20;;;;;;;9.71;91.08;100285.45;1755003;78;21474;-82
2022/10/29 06:01:25;;;;;;;22.32;15.35;;;;;;;9.77;91.01;100291.02;1777637;80;21002;-84
2022/10/29 06:03:51;;;;;;;21.30;15.40;;;;;;;9.86;90.73;100282.64;1788261;80;21156;-84
2022/10/29 06:06:18;;;;;;;25.55;17.15;;;;;;;9.90;90.63;100281.34;1792498;77;21219;-84
2022/10/29 06:08:44;;;;;;;18.10;14.63;;;;;;;9.92;90.62;100284.69;1751921;77;21116;-85
2022/10/29 06:11:12;;;;;;;20.72;16.07;;;;;;;10.03;90.31;100286.30;1759401;81;21031;-84
2022/10/29 06:13:39;;;;;;;18.70;15.43;;;;;;;10.19;89.81;100285.10;1754783;80;21069;-82
2022/10/29 06:16:07;;;;;;;23.15;17.02;;;;;;;10.24;89.51;100287.32;1755723;80;21069;-83
2022/10/29 06:18:34;;;;;;;20.15;14.75;;;;;;;10.28;89.42;100293.99;1744549;80;21029;-84
2022/10/29 06:21:00;;;;;;;20.55;15.03;;;;;;;10.41;88.66;100297.59;1777487;78;21714;-83
2022/10/29 06:23:28;;;;;;;20.52;15.40;;;;;;;10.53;87.75;100284.94;1784290;78;21378;-83
2022/10/29 06:26:00;;;;;;;20.65;16.82;;;;;;;10.51;87.33;100281.09;1783535;80;21486;-83
2022/10/29 06:28:27;;;;;;;20.70;14.83;;;;;;;10.50;87.49;100286.06;1789835;80;21006;-85
2022/10/29 06:30:53;;;;;;;19.15;14.73;;;;;;;10.59;87.33;100286.97;1778507;78;21237;-86
2022/10/29 06:33:21;;;;;;;23.60;15.95;;;;;;;10.67;87.08;100282.20;1777553;80;21058;-86
2022/10/29 06:35:48;;;;;;;20.77;15.85;;;;;;;10.69;86.93;100288.20;1769047;80;21135;-83
2022/10/29 06:38:15;;;;;;;19.23;14.63;;;;;;;10.70;86.80;100276.56;1766189;80;21006;-84
2022/10/29 06:40:47;;;;;;;20.77;15.38;;;;;;;10.79;86.71;100264.50;1738149;76;21080;-83
2022/10/29 06:43:14;;;;;;;23.60;16.97;;;;;;;10.85;86.48;100263.55;1699669;82;21648;-84
2022/10/29 06:45:40;;;;;;;23.22;16.02;;;;;;;10.84;86.66;100251.27;1651189;86;21101;-85
2022/10/29 06:48:08;;;;;;;19.45;14.45;;;;;;;10.84;86.61;100249.94;1695282;83;20989;-87
2022/10/29 06:50:35;;;;;;;20.97;16.32;;;;;;;10.93;86.07;100244.98;1696434;83;21093;-85
2022/10/29 06:53:06;;;;;;;18.32;15.60;;;;;;;11.00;85.76;100248.67;1696628;83;21065;-85
2022/10/29 06:55:33;;;;;;;19.85;16.85;;;;;;;10.94;85.78;100240.84;1697787;83;21143;-86
2022/10/29 06:58:04;;;;;;;22.22;16.00;;;;;;;10.90;85.97;100232.84;1700606;79;21022;-87
2022/10/29 07:00:31;;;;;;;20.15;16.95;;;;;;;10.96;85.98;100226.89;1720438;79;21066;-86
2022/10/29 07:02:58;;;;;;;25.43;16.95;;;;;;;11.02;85.84;100226.25;1755410;80;21054;-82
2022/10/29 07:05:25;;;;;;;18.48;16.15;;;;;;;11.01;85.98;100218.45;1711701;82;21069;-84
2022/10/29 07:07:56;;;;;;;20.37;17.27;;;;;;;11.01;86.12;100213.14;1713851;82;21146;-85
2022/10/29 07:10:22;;;;;;;23.42;16.17;;;;;;;11.08;86.09;100215.98;1707660;82;21112;-85
2022/10/29 07:12:49;;;;;;;21.48;15.98;;;;;;;11.22;85.67;100223.34;1718027;82;21394;-85
2022/10/29 07:15:17;;;;;;;21.15;16.07;;;;;;;11.24;85.41;100216.03;1714121;82;21128;-82
2022/10/29 07:18:02;;;;;;;18.75;15.83;;;;;;;11.25;85.26;100228.86;1713842;82;21020;-84
2022/10/29 07:20:31;;;;;;;23.87;17.27;;;;;;;11.32;85.00;100231.19;1709581;82;21266;-83
2022/10/29 07:22:59;;;;;;;23.22;17.87;;;;;;;11.35;84.91;100230.37;1725376;82;21047;-84
2022/10/29 07:25:28;;;;;;;24.85;17.55;;;;;;;11.33;85.09;100235.52;1713639;82;21107;-85
2022/10/29 07:27:55;;;;;;;22.45;16.80;;;;;;;11.28;85.11;100231.17;1722144;82;21514;-83
2022/10/29 07:30:21;;;;;;;20.05;17.30;;;;;;;11.34;85.07;100222.07;1710375;80;21099;-84
2022/10/29 07:32:48;;;;;;;26.77;19.35;;;;;;;11.38;84.98;100226.58;1742047;80;21233;-85
2022/10/29 07:35:15;;;;;;;21.45;18.02;;;;;;;11.40;84.92;100224.59;1744472;79;21353;-87
2022/10/29 07:37:42;;;;;;;21.80;16.02;;;;;;;11.39;84.76;100222.91;1775300;78;20993;-86
2022/10/29 07:40:10;;;;;;;21.27;16.93;;;;;;;11.48;84.58;100221.94;1791921;78;21514;-85
2022/10/29 07:42:36;;;;;;;20.12;16.12;;;;;;;11.54;84.39;100222.61;1758398;80;21028;-86
2022/10/29 07:45:05;;;;;;;20.17;15.50;;;;;;;11.54;84.49;100226.61;1771628;78;21040;-87
2022/10/29 07:47:31;;;;;;;25.23;16.50;;;;;;;11.56;84.48;100230.44;1751450;79;20975;-86
2022/10/29 07:49:58;;;;;;;18.92;15.28;;;;;;;11.74;84.26;100228.97;1777911;77;21030;-88
2022/10/29 07:52:24;;;;;;;17.87;15.68;;;;;;;11.88;83.62;100229.67;1761456;79;21183;-84
2022/10/29 07:54:51;;;;;;;20.50;16.73;;;;;;;11.94;83.28;100231.70;1761357;79;21211;-83
2022/10/29 07:57:17;;;;;;;21.73;15.28;;;;;;;11.99;83.21;100222.73;1765608;77;22141;-83
2022/10/29 07:59:45;;;;;;;19.60;15.55;;;;;;;12.10;82.84;100222.06;1765043;78;21009;-83
2022/10/29 08:02:12;;;;;;;21.12;16.37;;;;;;;12.18;82.34;100228.20;1778136;80;20992;-85
2022/10/29 08:04:38;;;;;;;19.52;15.32;;;;;;;12.14;82.40;100219.39;1753255;80;21431;-84
2022/10/29 08:07:05;;;;;;;17.15;15.35;;;;;;;12.10;82.64;100211.41;1759408;79;20987;-84
2022/10/29 08:09:32;;;;;;;19.57;16.80;;;;;;;12.16;82.65;100217.39;1757758;80;22020;-84
2022/10/29 08:11:58;;;;;;;20.17;17.10;;;;;;;12.33;82.62;100220.38;1755461;80;21006;-84
2022/10/29 08:14:25;;;;;;;24.72;16.20;;;;;;;12.50;82.33;100209.22;1758045;80;21037;-84
2022/10/29 08:16:54;;;;;;;20.43;15.08;;;;;;;12.72;81.58;100212.98;1759757;80;21018;-84
2022/10/29 08:19:22;;;;;;;24.23;13.88;;;;;;;12.96;80.79;100217.44;1771432;79;21073;-83
2022/10/29 08:21:50;;;;;;;19.60;15.10;;;;;;;13.24;79.98;100221.48;1770364;80;20978;-84
2022/10/29 08:24:18;;;;;;;22.13;15.55;;;;;;;13.34;79.62;100208.79;1773279;80;21105;-85
2022/10/29 08:26:44;;;;;;;16.60;14.25;;;;;;;13.41;79.15;100200.93;1767575;80;20989;-83
2022/10/29 08:29:11;;;;;;;17.20;13.05;;;;;;;13.47;78.96;100197.56;1779411;80;21046;-84
2022/10/29 08:31:37;;;;;;;15.68;13.68;;;;;;;13.63;78.33;100198.77;1773237;80;20994;-83
2022/10/29 08:34:04;;;;;;;18.27;13.70;;;;;;;13.84;77.57;100195.98;1773560;80;21124;-83
2022/10/29 08:36:30;;;;;;;18.32;14.33;;;;;;;13.91;76.84;100198.27;1776511;76;20994;-84
2022/10/29 08:38:57;;;;;;;23.00;15.65;;;;;;;13.93;76.61;100185.56;1764644;79;21628;-85
2022/10/29 08:41:47;;;;;;;15.00;13.25;;;;;;;13.98;76.71;100181.01;1762117;81;21014;-83
2022/10/29 08:44:52;;;;;;;16.95;13.15;;;;;;;14.08;76.32;100181.58;1808174;79;21033;-84
2022/10/29 08:47:22;;;;;;;16.82;13.60;;;;;;;14.33;75.40;100180.37;1781611;80;21143;-86
2022/10/29 08:50:17;;;;;;;17.60;13.68;;;;;;;14.52;75.18;100180.84;1756094;81;21062;-87
2022/10/29 08:52:43;;;;;;;19.77;15.48;;;;;;;14.59;74.41;100170.29;1738898;81;20963;-85
2022/10/29 08:55:20;;;;;;;17.55;13.90;;;;;;;14.55;74.49;100175.13;1746600;81;21040;-86
2022/10/29 08:57:56;;;;;;;17.65;14.73;;;;;;;14.50;74.67;100176.18;1777021;80;21019;-80
2022/10/29 09:00:30;;;;;;;20.00;14.47;;;;;;;14.48;74.99;100168.85;1781042;80;21093;-80
2022/10/29 09:02:59;;;;;;;19.82;13.95;;;;;;;14.62;74.90;100163.22;1780798;80;21047;-80
2022/10/29 09:05:30;;;;;;;16.32;13.60;;;;;;;14.72;74.81;100163.80;1769766;80;21056;-80
2022/10/29 09:08:06;;;;;;;20.37;14.38;;;;;;;14.75;74.34;100158.87;1756696;81;21051;-79
2022/10/29 09:10:47;;;;;;;18.57;13.53;;;;;;;14.77;74.19;100156.02;1753969;81;21023;-80
2022/10/29 09:13:46;;;;;;;23.80;14.43;;;;;;;14.84;74.13;100165.48;1755723;81;21212;-77
2022/10/29 09:16:42;;;;;;;16.70;13.72;;;;;;;15.01;73.86;100157.58;1666995;84;21125;-78
2022/10/29 09:19:34;;;;;;;15.83;12.78;;;;;;;15.33;72.83;100144.24;1670066;84;21110;-79
2022/10/29 09:22:18;;;;;;;16.35;12.73;;;;;;;15.60;72.16;100145.05;1739472;81;21070;-79
2022/10/29 09:25:16;;;;;;;15.25;12.63;;;;;;;15.71;70.91;100152.05;1749741;81;21126;-78
2022/10/29 09:27:49;;;;;;;18.42;14.35;;;;;;;15.66;71.14;100138.92;1765088;81;22335;-80
2022/10/29 09:30:18;;;;;;;15.83;13.32;;;;;;;15.51;71.61;100141.65;1755712;81;20974;-80
2022/10/29 09:33:03;;;;;;;13.80;11.05;;;;;;;15.42;72.12;100137.45;1753655;81;21073;-79
2022/10/29 09:35:39;;;;;;;18.52;11.85;;;;;;;15.40;72.37;100136.82;1756234;81;21014;-79
2022/10/29 09:38:27;;;;;;;19.27;14.13;;;;;;;15.50;72.18;100128.77;1755394;81;21117;-79
2022/10/29 09:40:56;;;;;;;16.82;13.50;;;;;;;15.54;72.30;100107.81;1721314;81;21106;-77
2022/10/29 09:43:46;;;;;;;17.10;12.88;;;;;;;15.61;71.95;100102.53;1737241;81;21111;-77
2022/10/29 09:47:01;;;;;;;16.87;12.60;;;;;;;15.69;71.49;100111.25;1753009;81;21146;-78
2022/10/29 09:49:58;;;;;;;15.80;12.47;;;;;;;15.98;71.00;100119.35;1748103;81;21037;-78
2022/10/29 09:52:29;;;;;;;15.50;11.60;;;;;;;16.28;69.88;100115.45;1703947;81;21062;-79
2022/10/29 09:54:56;;;;;;;15.40;11.15;;;;;;;16.41;69.37;100089.22;1756467;81;21166;-78
2022/10/29 09:57:28;;;;;;;14.43;11.55;;;;;;;16.51;68.89;100087.52;1768557;81;21026;-79
2022/10/29 10:00:07;;;;;;;17.50;12.40;;;;;;;16.66;68.84;100076.66;1782456;78;21021;-79
2022/10/29 10:02:58;;;;;;;16.73;13.43;;;;;;;16.88;68.29;100070.19;1780805;80;21026;-79
2022/10/29 10:05:28;;;;;;;17.37;12.50;;;;;;;17.06;67.51;100072.81;1766185;78;21041;-79
2022/10/29 10:08:13;;;;;;;16.15;11.93;;;;;;;17.04;67.37;100077.04;1773085;78;21498;-81
2022/10/29 10:11:03;;;;;;;15.45;12.78;;;;;;;17.00;67.47;100085.70;1774152;80;21038;-79
2022/10/29 10:13:37;;;;;;;16.20;12.35;;;;;;;16.88;67.80;100081.41;1740262;81;21054;-78
2022/10/29 10:16:05;;;;;;;17.00;10.72;;;;;;;16.68;68.27;100071.40;1749300;80;21032;-78
2022/10/29 10:18:41;;;;;;;14.78;11.38;;;;;;;16.57;68.69;100049.69;1776301;80;21050;-77
2022/10/29 10:21:15;;;;;;;14.10;11.33;;;;;;;16.45;69.25;100055.61;1746852;81;21147;-77
2022/10/29 10:23:51;;;;;;;16.77;13.15;;;;;;;16.38;69.67;100033.33;1764612;81;20982;-77
2022/10/29 10:26:41;;;;;;;11.95;10.60;;;;;;;16.38;69.85;100036.50;1762115;81;21043;-78
2022/10/29 10:32:04;;;;;;;21.25;11.78;;;;;;;16.21;71.69;100003.85;1782638;80;28097;-79
2022/10/29 10:34:36;;;;;;;14.33;11.12;;;;;;;16.06;72.67;99991.91;1769339;79;21517;-77
2022/10/29 10:37:16;;;;;;;17.05;12.20;;;;;;;16.04;72.97;99996.64;1747505;80;21573;-79
2022/10/29 10:39:54;;;;;;;15.75;13.00;;;;;;;15.90;74.31;99995.74;1753778;81;21094;-78
2022/10/29 10:42:31;;;;;;;20.10;13.43;;;;;;;15.75;74.87;99999.86;1745895;81;21594;-77
2022/10/29 10:45:01;;;;;;;14.38;12.40;;;;;;;15.62;75.62;100009.92;1752166;81;21494;-78
2022/10/29 10:47:32;;;;;;;15.68;11.80;;;;;;;15.60;75.69;99992.41;1752626;81;21280;-79
2022/10/29 10:50:32;;;;;;;17.23;12.95;;;;;;;15.61;75.76;100002.11;1779164;79;21205;-78
2022/10/29 10:53:06;;;;;;;15.40;12.63;;;;;;;15.51;75.83;99995.23;1752408;81;21125;-79
2022/10/29 10:55:38;;;;;;;15.53;12.07;;;;;;;15.44;76.16;99979.63;1734645;82;21002;-78
2022/10/29 10:58:16;;;;;;;21.20;12.82;;;;;;;15.40;76.69;99981.55;1729562;81;21050;-82
2022/10/29 11:01:08;;;;;;;18.40;12.78;;;;;;;15.46;76.63;99980.25;1733742;81;21014;-79
2022/10/29 11:03:59;;;;;;;19.98;11.68;;;;;;;15.44;77.04;99986.83;1746164;81;24192;-80
2022/10/29 11:06:32;;;;;;;14.53;10.98;;;;;;;15.36;77.40;99971.73;1762238;80;21014;-80
2022/10/29 11:09:26;;;;;;;15.28;11.65;;;;;;;15.40;77.67;99982.89;1749613;81;21476;-79
2022/10/29 11:12:07;;;;;;;15.32;11.90;;;;;;;15.50;77.83;99974.00;1747660;81;21294;-80
2022/10/29 11:14:42;;;;;;;13.25;11.05;;;;;;;15.51;77.77;99979.66;1752361;81;20991;-80
2022/10/29 11:17:14;;;;;;;13.28;9.90;;;;;;;15.52;77.66;99975.45;1754343;81;21119;-79
2022/10/29 11:19:46;;;;;;;14.03;11.03;;;;;;;15.63;77.29;99969.27;1727499;81;21075;-80
2022/10/29 11:22:24;;;;;;;19.67;12.90;;;;;;;15.71;76.91;99955.72;1757352;81;21512;-80
2022/10/29 11:25:18;;;;;;;13.75;9.93;;;;;;;15.68;77.00;99945.38;1751405;81;21081;-79
2022/10/29 11:28:23;;;;;;;14.80;10.13;;;;;;;15.66;76.53;99956.80;1757662;81;21544;-78
2022/10/29 11:30:58;;;;;;;19.48;11.22;;;;;;;15.71;75.98;99938.31;1768528;79;21494;-81
2022/10/29 11:33:52;;;;;;;15.72;11.00;;;;;;;15.79;76.12;99910.05;1785103;79;21014;-80
2022/10/29 11:36:23;;;;;;;18.48;12.68;;;;;;;15.73;76.29;99929.59;1749149;81;21073;-79
2022/10/29 11:38:58;;;;;;;14.58;10.45;;;;;;;15.65;77.02;99921.70;1740199;81;21034;-80